sensor_id;sensor_type;location;lat;lon;timestamp;P1;durP1;ratioP1;P2;durP2;ratioP2
16522;SDS011;19889;52.546;13.348;2023-04-08T00:01:54;11.70;;;7.63;;
16522;SDS011;19889;52.546;13.348;2023-04-08T00:04:23;11.47;;;7.57;;
16522;SDS011;19889;52.546;13.348;2023-04-08T00:06:50;12.20;;;8.07;;
16522;SDS011;19889;52.546;13.348;2023-04-08T00:09:18;11.57;;;8.00;;
16522;SDS011;19889;52.546;13.348;2023-04-08T00:11:45;12.13;;;7.97;;
16522;SDS011;19889;52.546;13.348;2023-04-08T00:14:12;12.30;;;8.83;;
16522;SDS011;19889;52.546;13.348;2023-04-08T00:16:39;12.70;;;8.87;;
16522;SDS011;19889;52.546;13.348;2023-04-08T00:19:06;13.40;;;8.47;;
16522;SDS011;19889;52.546;13.348;2023-04-08T00:21:33;13.90;;;9.10;;
16522;SDS011;19889;52.546;13.348;2023-04-08T00:24:00;14.27;;;9.37;;
16522;SDS011;19889;52.546;13.348;2023-04-08T00:26:29;15.10;;;9.80;;
16522;SDS011;19889;52.546;13.348;2023-04-08T00:28:56;19.07;;;10.47;;
16522;SDS011;19889;52.546;13.348;2023-04-08T00:31:23;16.97;;;10.30;;
16522;SDS011;19889;52.546;13.348;2023-04-08T00:33:53;18.40;;;11.17;;
16522;SDS011;19889;52.546;13.348;2023-04-08T00:36:20;13.57;;;9.23;;
16522;SDS011;19889;52.546;13.348;2023-04-08T00:38:47;15.07;;;10.20;;
16522;SDS011;19889;52.546;13.348;2023-04-08T00:41:14;19.17;;;11.17;;
16522;SDS011;19889;52.546;13.348;2023-04-08T00:43:42;14.83;;;9.87;;
16522;SDS011;19889;52.546;13.348;2023-04-08T00:46:09;21.43;;;11.63;;
16522;SDS011;19889;52.546;13.348;2023-04-08T00:48:36;16.90;;;11.43;;
16522;SDS011;19889;52.546;13.348;2023-04-08T00:51:03;16.50;;;11.03;;
16522;SDS011;19889;52.546;13.348;2023-04-08T00:53:31;17.87;;;10.97;;
16522;SDS011;19889;52.546;13.348;2023-04-08T00:55:58;17.33;;;10.30;;
16522;SDS011;19889;52.546;13.348;2023-04-08T00:58:25;19.70;;;11.90;;
16522;SDS011;19889;52.546;13.348;2023-04-08T01:00:57;19.97;;;11.83;;
16522;SDS011;19889;52.546;13.348;2023-04-08T01:03:29;20.63;;;11.87;;
16522;SDS011;19889;52.546;13.348;2023-04-08T01:06:06;18.40;;;11.37;;
16522;SDS011;19889;52.546;13.348;2023-04-08T01:08:37;19.80;;;11.03;;
16522;SDS011;19889;52.546;13.348;2023-04-08T01:11:09;21.90;;;12.60;;
16522;SDS011;19889;52.546;13.348;2023-04-08T01:13:38;23.40;;;12.03;;
16522;SDS011;19889;52.546;13.348;2023-04-08T01:16:10;21.33;;;11.47;;
16522;SDS011;19889;52.546;13.348;2023-04-08T01:18:40;25.00;;;12.47;;
16522;SDS011;19889;52.546;13.348;2023-04-08T01:21:08;21.83;;;12.27;;
16522;SDS011;19889;52.546;13.348;2023-04-08T01:23:42;19.23;;;12.07;;
16522;SDS011;19889;52.546;13.348;2023-04-08T01:26:22;17.97;;;11.50;;
16522;SDS011;19889;52.546;13.348;2023-04-08T01:28:51;18.90;;;12.03;;
16522;SDS011;19889;52.546;13.348;2023-04-08T01:31:20;22.60;;;13.17;;
16522;SDS011;19889;52.546;13.348;2023-04-08T01:33:49;19.87;;;11.83;;
16522;SDS011;19889;52.546;13.348;2023-04-08T01:36:20;21.13;;;12.20;;
16522;SDS011;19889;52.546;13.348;2023-04-08T01:38:48;23.53;;;12.13;;
16522;SDS011;19889;52.546;13.348;2023-04-08T01:41:16;22.77;;;12.43;;
16522;SDS011;19889;52.546;13.348;2023-04-08T01:43:46;21.43;;;11.70;;
16522;SDS011;19889;52.546;13.348;2023-04-08T01:46:15;22.23;;;13.03;;
16522;SDS011;19889;52.546;13.348;2023-04-08T01:48:42;20.60;;;12.80;;
16522;SDS011;19889;52.546;13.348;2023-04-08T01:51:10;17.83;;;11.70;;
16522;SDS011;19889;52.546;13.348;2023-04-08T01:53:38;23.27;;;12.77;;
16522;SDS011;19889;52.546;13.348;2023-04-08T01:56:06;22.97;;;12.30;;
16522;SDS011;19889;52.546;13.348;2023-04-08T01:58:36;24.90;;;12.97;;
16522;SDS011;19889;52.546;13.348;2023-04-08T02:01:09;23.20;;;12.43;;
16522;SDS011;19889;52.546;13.348;2023-04-08T02:03:37;25.27;;;12.77;;
16522;SDS011;19889;52.546;13.348;2023-04-08T02:06:08;19.40;;;12.53;;
16522;SDS011;19889;52.546;13.348;2023-04-08T02:08:35;19.70;;;11.93;;
16522;SDS011;19889;52.546;13.348;2023-04-08T02:11:02;21.87;;;12.83;;
16522;SDS011;19889;52.546;13.348;2023-04-08T02:13:29;21.10;;;13.07;;
16522;SDS011;19889;52.546;13.348;2023-04-08T02:16:01;22.07;;;12.00;;
16522;SDS011;19889;52.546;13.348;2023-04-08T02:18:33;19.60;;;11.60;;
16522;SDS011;19889;52.546;13.348;2023-04-08T02:21:05;20.80;;;13.17;;
16522;SDS011;19889;52.546;13.348;2023-04-08T02:23:37;29.23;;;14.20;;
16522;SDS011;19889;52.546;13.348;2023-04-08T02:26:06;29.90;;;15.53;;
16522;SDS011;19889;52.546;13.348;2023-04-08T02:28:38;22.77;;;12.73;;
16522;SDS011;19889;52.546;13.348;2023-04-08T02:31:08;31.40;;;14.80;;
16522;SDS011;19889;52.546;13.348;2023-04-08T02:33:40;23.23;;;11.83;;
16522;SDS011;19889;52.546;13.348;2023-04-08T02:36:08;24.20;;;12.63;;
16522;SDS011;19889;52.546;13.348;2023-04-08T02:38:37;23.77;;;12.47;;
16522;SDS011;19889;52.546;13.348;2023-04-08T02:41:04;22.23;;;11.67;;
16522;SDS011;19889;52.546;13.348;2023-04-08T02:43:31;22.83;;;13.37;;
16522;SDS011;19889;52.546;13.348;2023-04-08T02:46:03;21.50;;;12.30;;
16522;SDS011;19889;52.546;13.348;2023-04-08T02:48:31;21.53;;;13.17;;
16522;SDS011;19889;52.546;13.348;2023-04-08T02:51:00;26.00;;;13.33;;
16522;SDS011;19889;52.546;13.348;2023-04-08T02:53:27;25.77;;;14.13;;
16522;SDS011;19889;52.546;13.348;2023-04-08T02:55:54;25.93;;;13.27;;
16522;SDS011;19889;52.546;13.348;2023-04-08T02:58:21;22.73;;;12.80;;
16522;SDS011;19889;52.546;13.348;2023-04-08T03:00:48;20.37;;;12.47;;
16522;SDS011;19889;52.546;13.348;2023-04-08T03:03:15;25.90;;;14.13;;
16522;SDS011;19889;52.546;13.348;2023-04-08T03:05:41;23.43;;;13.13;;
16522;SDS011;19889;52.546;13.348;2023-04-08T03:08:10;21.83;;;12.23;;
16522;SDS011;19889;52.546;13.348;2023-04-08T03:10:37;27.43;;;13.27;;
16522;SDS011;19889;52.546;13.348;2023-04-08T03:13:04;20.80;;;12.40;;
16522;SDS011;19889;52.546;13.348;2023-04-08T03:15:31;22.53;;;13.37;;
16522;SDS011;19889;52.546;13.348;2023-04-08T03:17:57;23.27;;;13.40;;
16522;SDS011;19889;52.546;13.348;2023-04-08T03:20:25;25.53;;;13.00;;
16522;SDS011;19889;52.546;13.348;2023-04-08T03:22:52;21.27;;;12.40;;
16522;SDS011;19889;52.546;13.348;2023-04-08T03:25:20;24.70;;;12.77;;
16522;SDS011;19889;52.546;13.348;2023-04-08T03:27:47;24.80;;;13.17;;
16522;SDS011;19889;52.546;13.348;2023-04-08T03:30:15;21.93;;;13.50;;
16522;SDS011;19889;52.546;13.348;2023-04-08T03:32:42;22.43;;;13.17;;
16522;SDS011;19889;52.546;13.348;2023-04-08T03:35:09;23.07;;;14.13;;
16522;SDS011;19889;52.546;13.348;2023-04-08T03:37:36;22.80;;;13.03;;
16522;SDS011;19889;52.546;13.348;2023-04-08T03:40:03;25.33;;;12.60;;
16522;SDS011;19889;52.546;13.348;2023-04-08T03:42:32;21.00;;;12.57;;
16522;SDS011;19889;52.546;13.348;2023-04-08T03:44:59;22.77;;;13.00;;
16522;SDS011;19889;52.546;13.348;2023-04-08T03:47:26;27.50;;;13.57;;
16522;SDS011;19889;52.546;13.348;2023-04-08T03:49:53;24.73;;;13.20;;
16522;SDS011;19889;52.546;13.348;2023-04-08T03:52:20;24.53;;;13.53;;
16522;SDS011;19889;52.546;13.348;2023-04-08T03:54:48;25.37;;;13.90;;
16522;SDS011;19889;52.546;13.348;2023-04-08T03:57:15;24.40;;;12.47;;
16522;SDS011;19889;52.546;13.348;2023-04-08T03:59:43;23.97;;;12.80;;
16522;SDS011;19889;52.546;13.348;2023-04-08T04:02:10;21.83;;;12.67;;
16522;SDS011;19889;52.546;13.348;2023-04-08T04:04:37;26.30;;;13.47;;
16522;SDS011;19889;52.546;13.348;2023-04-08T04:07:04;24.60;;;13.57;;
16522;SDS011;19889;52.546;13.348;2023-04-08T04:09:31;27.67;;;14.03;;
16522;SDS011;19889;52.546;13.348;2023-04-08T04:11:58;25.90;;;12.87;;
16522;SDS011;19889;52.546;13.348;2023-04-08T04:14:25;24.80;;;13.97;;
16522;SDS011;19889;52.546;13.348;2023-04-08T04:16:53;27.03;;;13.67;;
16522;SDS011;19889;52.546;13.348;2023-04-08T04:19:21;24.73;;;13.63;;
16522;SDS011;19889;52.546;13.348;2023-04-08T04:21:47;25.47;;;13.33;;
16522;SDS011;19889;52.546;13.348;2023-04-08T04:24:14;24.63;;;12.53;;
16522;SDS011;19889;52.546;13.348;2023-04-08T04:26:41;26.97;;;13.20;;
16522;SDS011;19889;52.546;13.348;2023-04-08T04:29:08;22.93;;;13.20;;
16522;SDS011;19889;52.546;13.348;2023-04-08T04:31:35;25.50;;;14.17;;
16522;SDS011;19889;52.546;13.348;2023-04-08T04:34:04;25.10;;;12.93;;
16522;SDS011;19889;52.546;13.348;2023-04-08T04:36:30;24.03;;;13.97;;
16522;SDS011;19889;52.546;13.348;2023-04-08T04:38:57;25.90;;;13.40;;
16522;SDS011;19889;52.546;13.348;2023-04-08T04:41:24;24.93;;;13.13;;
16522;SDS011;19889;52.546;13.348;2023-04-08T04:43:52;26.87;;;13.67;;
16522;SDS011;19889;52.546;13.348;2023-04-08T04:46:19;24.37;;;13.70;;
16522;SDS011;19889;52.546;13.348;2023-04-08T04:48:46;26.20;;;14.60;;
16522;SDS011;19889;52.546;13.348;2023-04-08T04:51:14;31.63;;;14.67;;
16522;SDS011;19889;52.546;13.348;2023-04-08T04:53:41;26.23;;;13.87;;
16522;SDS011;19889;52.546;13.348;2023-04-08T04:56:08;27.03;;;13.70;;
16522;SDS011;19889;52.546;13.348;2023-04-08T04:58:36;26.40;;;13.60;;
16522;SDS011;19889;52.546;13.348;2023-04-08T05:01:03;26.53;;;13.67;;
16522;SDS011;19889;52.546;13.348;2023-04-08T05:03:30;24.73;;;13.07;;
16522;SDS011;19889;52.546;13.348;2023-04-08T05:05:57;20.77;;;13.33;;
16522;SDS011;19889;52.546;13.348;2023-04-08T05:08:26;22.20;;;13.63;;
16522;SDS011;19889;52.546;13.348;2023-04-08T05:10:53;24.73;;;13.13;;
16522;SDS011;19889;52.546;13.348;2023-04-08T05:13:20;26.10;;;13.63;;
16522;SDS011;19889;52.546;13.348;2023-04-08T05:15:47;27.07;;;14.33;;
16522;SDS011;19889;52.546;13.348;2023-04-08T05:18:14;22.27;;;13.03;;
16522;SDS011;19889;52.546;13.348;2023-04-08T05:20:41;25.63;;;14.40;;
16522;SDS011;19889;52.546;13.348;2023-04-08T05:23:08;26.23;;;15.17;;
16522;SDS011;19889;52.546;13.348;2023-04-08T05:25:36;26.70;;;14.63;;
16522;SDS011;19889;52.546;13.348;2023-04-08T05:28:04;25.10;;;14.23;;
16522;SDS011;19889;52.546;13.348;2023-04-08T05:30:31;25.73;;;14.23;;
16522;SDS011;19889;52.546;13.348;2023-04-08T05:32:58;27.03;;;14.67;;
16522;SDS011;19889;52.546;13.348;2023-04-08T05:35:25;27.47;;;14.63;;
16522;SDS011;19889;52.546;13.348;2023-04-08T05:37:52;26.33;;;14.50;;
16522;SDS011;19889;52.546;13.348;2023-04-08T05:40:19;26.67;;;14.63;;
16522;SDS011;19889;52.546;13.348;2023-04-08T05:42:47;31.07;;;15.17;;
16522;SDS011;19889;52.546;13.348;2023-04-08T05:45:14;25.70;;;14.50;;
16522;SDS011;19889;52.546;13.348;2023-04-08T05:47:41;30.40;;;15.90;;
16522;SDS011;19889;52.546;13.348;2023-04-08T05:50:08;31.20;;;15.27;;
16522;SDS011;19889;52.546;13.348;2023-04-08T05:52:36;36.83;;;16.80;;
16522;SDS011;19889;52.546;13.348;2023-04-08T05:55:07;28.13;;;14.93;;
16522;SDS011;19889;52.546;13.348;2023-04-08T05:57:34;30.13;;;15.57;;
16522;SDS011;19889;52.546;13.348;2023-04-08T06:00:03;26.17;;;14.57;;
16522;SDS011;19889;52.546;13.348;2023-04-08T06:02:31;28.13;;;15.33;;
16522;SDS011;19889;52.546;13.348;2023-04-08T06:04:58;28.57;;;14.53;;
16522;SDS011;19889;52.546;13.348;2023-04-08T06:07:25;25.00;;;14.97;;
16522;SDS011;19889;52.546;13.348;2023-04-08T06:09:52;26.77;;;15.23;;
16522;SDS011;19889;52.546;13.348;2023-04-08T06:12:19;25.13;;;14.87;;
16522;SDS011;19889;52.546;13.348;2023-04-08T06:14:46;31.03;;;16.17;;
16522;SDS011;19889;52.546;13.348;2023-04-08T06:17:14;33.50;;;16.73;;
16522;SDS011;19889;52.546;13.348;2023-04-08T06:19:41;32.87;;;16.47;;
16522;SDS011;19889;52.546;13.348;2023-04-08T06:22:08;27.60;;;14.80;;
16522;SDS011;19889;52.546;13.348;2023-04-08T06:24:35;32.47;;;16.10;;
16522;SDS011;19889;52.546;13.348;2023-04-08T06:27:03;28.53;;;16.17;;
16522;SDS011;19889;52.546;13.348;2023-04-08T06:29:30;34.30;;;17.60;;
16522;SDS011;19889;52.546;13.348;2023-04-08T06:31:57;27.93;;;16.00;;
16522;SDS011;19889;52.546;13.348;2023-04-08T06:34:26;31.20;;;16.33;;
16522;SDS011;19889;52.546;13.348;2023-04-08T06:36:53;32.47;;;16.30;;
16522;SDS011;19889;52.546;13.348;2023-04-08T06:39:20;26.87;;;15.37;;
16522;SDS011;19889;52.546;13.348;2023-04-08T06:41:47;32.60;;;16.23;;
16522;SDS011;19889;52.546;13.348;2023-04-08T06:44:34;35.37;;;16.77;;
16522;SDS011;19889;52.546;13.348;2023-04-08T06:47:01;33.23;;;16.70;;
16522;SDS011;19889;52.546;13.348;2023-04-08T06:49:29;31.27;;;15.20;;
16522;SDS011;19889;52.546;13.348;2023-04-08T06:51:56;31.57;;;16.53;;
16522;SDS011;19889;52.546;13.348;2023-04-08T06:54:23;32.33;;;17.07;;
16522;SDS011;19889;52.546;13.348;2023-04-08T06:56:50;32.37;;;16.30;;
16522;SDS011;19889;52.546;13.348;2023-04-08T06:59:17;28.30;;;16.70;;
16522;SDS011;19889;52.546;13.348;2023-04-08T07:01:44;26.57;;;16.23;;
16522;SDS011;19889;52.546;13.348;2023-04-08T07:04:11;30.03;;;15.93;;
16522;SDS011;19889;52.546;13.348;2023-04-08T07:06:39;30.63;;;16.10;;
16522;SDS011;19889;52.546;13.348;2023-04-08T07:09:06;29.90;;;16.57;;
16522;SDS011;19889;52.546;13.348;2023-04-08T07:11:33;31.97;;;16.77;;
16522;SDS011;19889;52.546;13.348;2023-04-08T07:14:00;32.67;;;17.27;;
16522;SDS011;19889;52.546;13.348;2023-04-08T07:16:27;31.33;;;16.20;;
16522;SDS011;19889;52.546;13.348;2023-04-08T07:18:54;26.20;;;14.90;;
16522;SDS011;19889;52.546;13.348;2023-04-08T07:21:22;33.27;;;17.07;;
16522;SDS011;19889;52.546;13.348;2023-04-08T07:23:50;32.50;;;16.57;;
16522;SDS011;19889;52.546;13.348;2023-04-08T07:26:17;31.23;;;17.23;;
16522;SDS011;19889;52.546;13.348;2023-04-08T07:28:44;27.40;;;16.17;;
16522;SDS011;19889;52.546;13.348;2023-04-08T07:31:12;30.33;;;15.90;;
16522;SDS011;19889;52.546;13.348;2023-04-08T07:33:40;29.27;;;15.93;;
16522;SDS011;19889;52.546;13.348;2023-04-08T07:36:07;30.67;;;16.77;;
16522;SDS011;19889;52.546;13.348;2023-04-08T07:38:36;28.23;;;16.67;;
16522;SDS011;19889;52.546;13.348;2023-04-08T07:41:04;32.37;;;15.17;;
16522;SDS011;19889;52.546;13.348;2023-04-08T07:43:31;31.17;;;17.60;;
16522;SDS011;19889;52.546;13.348;2023-04-08T07:46:01;32.07;;;15.47;;
16522;SDS011;19889;52.546;13.348;2023-04-08T07:48:28;27.70;;;15.50;;
16522;SDS011;19889;52.546;13.348;2023-04-08T07:50:55;30.93;;;16.43;;
16522;SDS011;19889;52.546;13.348;2023-04-08T07:53:23;32.33;;;16.83;;
16522;SDS011;19889;52.546;13.348;2023-04-08T07:55:50;31.03;;;15.83;;
16522;SDS011;19889;52.546;13.348;2023-04-08T07:58:19;36.07;;;17.13;;
16522;SDS011;19889;52.546;13.348;2023-04-08T08:00:46;32.13;;;17.37;;
16522;SDS011;19889;52.546;13.348;2023-04-08T08:03:13;41.50;;;17.63;;
16522;SDS011;19889;52.546;13.348;2023-04-08T08:05:40;33.57;;;17.47;;
16522;SDS011;19889;52.546;13.348;2023-04-08T08:08:08;28.97;;;16.77;;
16522;SDS011;19889;52.546;13.348;2023-04-08T08:10:36;33.80;;;16.70;;
16522;SDS011;19889;52.546;13.348;2023-04-08T08:13:03;36.10;;;17.10;;
16522;SDS011;19889;52.546;13.348;2023-04-08T08:15:31;32.83;;;17.47;;
16522;SDS011;19889;52.546;13.348;2023-04-08T08:17:58;31.60;;;16.43;;
16522;SDS011;19889;52.546;13.348;2023-04-08T08:20:25;34.37;;;17.83;;
16522;SDS011;19889;52.546;13.348;2023-04-08T08:22:52;33.73;;;16.63;;
16522;SDS011;19889;52.546;13.348;2023-04-08T08:25:19;31.10;;;16.97;;
16522;SDS011;19889;52.546;13.348;2023-04-08T08:27:46;30.07;;;16.70;;
16522;SDS011;19889;52.546;13.348;2023-04-08T08:30:13;33.97;;;18.03;;
16522;SDS011;19889;52.546;13.348;2023-04-08T08:32:44;32.03;;;16.87;;
16522;SDS011;19889;52.546;13.348;2023-04-08T08:35:11;36.27;;;20.07;;
16522;SDS011;19889;52.546;13.348;2023-04-08T08:37:38;33.13;;;17.83;;
16522;SDS011;19889;52.546;13.348;2023-04-08T08:40:05;32.10;;;17.20;;
16522;SDS011;19889;52.546;13.348;2023-04-08T08:42:33;29.93;;;16.10;;
16522;SDS011;19889;52.546;13.348;2023-04-08T08:45:00;34.43;;;17.50;;
16522;SDS011;19889;52.546;13.348;2023-04-08T08:47:28;33.30;;;16.73;;
16522;SDS011;19889;52.546;13.348;2023-04-08T08:49:57;33.47;;;17.20;;
16522;SDS011;19889;52.546;13.348;2023-04-08T08:52:25;29.83;;;17.27;;
16522;SDS011;19889;52.546;13.348;2023-04-08T08:54:56;30.73;;;15.93;;
16522;SDS011;19889;52.546;13.348;2023-04-08T08:57:23;32.40;;;16.37;;
16522;SDS011;19889;52.546;13.348;2023-04-08T08:59:51;31.63;;;18.40;;
16522;SDS011;19889;52.546;13.348;2023-04-08T09:02:25;32.73;;;17.00;;
16522;SDS011;19889;52.546;13.348;2023-04-08T09:04:55;28.70;;;16.70;;
16522;SDS011;19889;52.546;13.348;2023-04-08T09:07:25;31.50;;;18.17;;
16522;SDS011;19889;52.546;13.348;2023-04-08T09:09:53;38.53;;;21.50;;
16522;SDS011;19889;52.546;13.348;2023-04-08T09:12:21;34.10;;;20.30;;
16522;SDS011;19889;52.546;13.348;2023-04-08T09:14:48;33.70;;;18.63;;
16522;SDS011;19889;52.546;13.348;2023-04-08T09:17:15;28.90;;;17.10;;
16522;SDS011;19889;52.546;13.348;2023-04-08T09:20:05;29.03;;;17.63;;
16522;SDS011;19889;52.546;13.348;2023-04-08T09:22:53;28.30;;;16.90;;
16522;SDS011;19889;52.546;13.348;2023-04-08T09:25:22;33.07;;;16.93;;
16522;SDS011;19889;52.546;13.348;2023-04-08T09:27:49;34.13;;;18.50;;
16522;SDS011;19889;52.546;13.348;2023-04-08T09:30:17;24.93;;;15.73;;
16522;SDS011;19889;52.546;13.348;2023-04-08T09:32:46;30.97;;;17.73;;
16522;SDS011;19889;52.546;13.348;2023-04-08T09:35:15;29.47;;;17.03;;
16522;SDS011;19889;52.546;13.348;2023-04-08T09:37:42;30.37;;;16.40;;
16522;SDS011;19889;52.546;13.348;2023-04-08T09:40:09;32.80;;;17.53;;
16522;SDS011;19889;52.546;13.348;2023-04-08T09:42:38;31.03;;;16.07;;
16522;SDS011;19889;52.546;13.348;2023-04-08T09:45:07;31.37;;;16.00;;
16522;SDS011;19889;52.546;13.348;2023-04-08T09:47:37;28.10;;;14.90;;
16522;SDS011;19889;52.546;13.348;2023-04-08T09:50:14;33.77;;;17.33;;
16522;SDS011;19889;52.546;13.348;2023-04-08T09:52:45;29.13;;;17.50;;
16522;SDS011;19889;52.546;13.348;2023-04-08T09:55:20;27.33;;;16.17;;
16522;SDS011;19889;52.546;13.348;2023-04-08T09:57:50;39.00;;;19.83;;
16522;SDS011;19889;52.546;13.348;2023-04-08T10:00:21;29.93;;;16.73;;
16522;SDS011;19889;52.546;13.348;2023-04-08T10:02:54;31.10;;;15.80;;
16522;SDS011;19889;52.546;13.348;2023-04-08T10:05:23;27.33;;;16.47;;
16522;SDS011;19889;52.546;13.348;2023-04-08T10:07:51;30.60;;;16.47;;
16522;SDS011;19889;52.546;13.348;2023-04-08T10:10:21;26.27;;;15.50;;
16522;SDS011;19889;52.546;13.348;2023-04-08T10:12:48;31.87;;;17.43;;
16522;SDS011;19889;52.546;13.348;2023-04-08T10:15:25;30.00;;;16.67;;
16522;SDS011;19889;52.546;13.348;2023-04-08T10:17:53;28.47;;;16.23;;
16522;SDS011;19889;52.546;13.348;2023-04-08T10:23:09;30.07;;;17.40;;
16522;SDS011;19889;52.546;13.348;2023-04-08T10:25:37;26.53;;;16.07;;
16522;SDS011;19889;52.546;13.348;2023-04-08T10:28:23;30.03;;;17.10;;
16522;SDS011;19889;52.546;13.348;2023-04-08T10:30:51;30.57;;;15.97;;
16522;SDS011;19889;52.546;13.348;2023-04-08T10:33:20;27.10;;;15.43;;
16522;SDS011;19889;52.546;13.348;2023-04-08T10:35:51;28.43;;;15.97;;
16522;SDS011;19889;52.546;13.348;2023-04-08T10:38:19;26.90;;;15.70;;
16522;SDS011;19889;52.546;13.348;2023-04-08T10:40:47;29.57;;;17.10;;
16522;SDS011;19889;52.546;13.348;2023-04-08T10:43:15;30.40;;;16.30;;
16522;SDS011;19889;52.546;13.348;2023-04-08T10:45:43;25.03;;;15.13;;
16522;SDS011;19889;52.546;13.348;2023-04-08T10:48:11;26.73;;;15.87;;
16522;SDS011;19889;52.546;13.348;2023-04-08T10:50:39;25.00;;;15.53;;
16522;SDS011;19889;52.546;13.348;2023-04-08T10:53:08;22.27;;;13.83;;
16522;SDS011;19889;52.546;13.348;2023-04-08T10:55:36;22.93;;;14.30;;
16522;SDS011;19889;52.546;13.348;2023-04-08T10:58:04;21.97;;;14.43;;
16522;SDS011;19889;52.546;13.348;2023-04-08T11:00:32;23.67;;;15.27;;
16522;SDS011;19889;52.546;13.348;2023-04-08T11:03:00;22.73;;;14.97;;
16522;SDS011;19889;52.546;13.348;2023-04-08T11:05:28;25.17;;;14.37;;
16522;SDS011;19889;52.546;13.348;2023-04-08T11:07:55;22.70;;;14.23;;
16522;SDS011;19889;52.546;13.348;2023-04-08T11:10:25;22.17;;;13.53;;
16522;SDS011;19889;52.546;13.348;2023-04-08T11:12:53;20.67;;;13.33;;
16522;SDS011;19889;52.546;13.348;2023-04-08T11:15:20;26.50;;;16.47;;
16522;SDS011;19889;52.546;13.348;2023-04-08T11:17:48;22.17;;;14.37;;
16522;SDS011;19889;52.546;13.348;2023-04-08T11:20:15;23.03;;;14.43;;
16522;SDS011;19889;52.546;13.348;2023-04-08T11:22:42;20.37;;;13.43;;
16522;SDS011;19889;52.546;13.348;2023-04-08T11:25:10;20.07;;;12.80;;
16522;SDS011;19889;52.546;13.348;2023-04-08T11:27:38;21.77;;;13.77;;
16522;SDS011;19889;52.546;13.348;2023-04-08T11:30:06;24.23;;;14.93;;
16522;SDS011;19889;52.546;13.348;2023-04-08T11:32:36;21.87;;;13.90;;
16522;SDS011;19889;52.546;13.348;2023-04-08T11:35:04;18.33;;;13.47;;
16522;SDS011;19889;52.546;13.348;2023-04-08T11:37:35;27.03;;;14.83;;
16522;SDS011;19889;52.546;13.348;2023-04-08T11:40:05;21.93;;;14.67;;
16522;SDS011;19889;52.546;13.348;2023-04-08T11:42:34;21.03;;;14.13;;
16522;SDS011;19889;52.546;13.348;2023-04-08T11:45:08;22.43;;;14.23;;
16522;SDS011;19889;52.546;13.348;2023-04-08T11:47:36;21.70;;;14.20;;
16522;SDS011;19889;52.546;13.348;2023-04-08T11:50:03;22.53;;;13.90;;
16522;SDS011;19889;52.546;13.348;2023-04-08T11:52:41;25.70;;;18.20;;
16522;SDS011;19889;52.546;13.348;2023-04-08T11:55:09;29.63;;;17.60;;
16522;SDS011;19889;52.546;13.348;2023-04-08T11:57:37;23.10;;;15.27;;
16522;SDS011;19889;52.546;13.348;2023-04-08T12:00:06;22.20;;;14.60;;
16522;SDS011;19889;52.546;13.348;2023-04-08T12:02:36;26.07;;;14.87;;
16522;SDS011;19889;52.546;13.348;2023-04-08T12:05:03;20.80;;;14.10;;
16522;SDS011;19889;52.546;13.348;2023-04-08T12:07:30;25.60;;;15.70;;
16522;SDS011;19889;52.546;13.348;2023-04-08T12:09:57;24.77;;;15.57;;
16522;SDS011;19889;52.546;13.348;2023-04-08T12:12:25;23.57;;;14.63;;
16522;SDS011;19889;52.546;13.348;2023-04-08T12:14:52;26.90;;;14.93;;
16522;SDS011;19889;52.546;13.348;2023-04-08T12:17:20;23.60;;;14.80;;
16522;SDS011;19889;52.546;13.348;2023-04-08T12:19:47;22.30;;;14.07;;
16522;SDS011;19889;52.546;13.348;2023-04-08T12:22:14;21.23;;;15.00;;
16522;SDS011;19889;52.546;13.348;2023-04-08T12:24:41;23.27;;;16.10;;
16522;SDS011;19889;52.546;13.348;2023-04-08T12:27:08;18.57;;;13.63;;
16522;SDS011;19889;52.546;13.348;2023-04-08T12:29:35;17.47;;;12.20;;
16522;SDS011;19889;52.546;13.348;2023-04-08T12:32:02;18.50;;;11.73;;
16522;SDS011;19889;52.546;13.348;2023-04-08T12:34:31;14.60;;;11.33;;
16522;SDS011;19889;52.546;13.348;2023-04-08T12:36:58;17.73;;;12.23;;
16522;SDS011;19889;52.546;13.348;2023-04-08T12:39:25;22.60;;;15.67;;
16522;SDS011;19889;52.546;13.348;2023-04-08T12:41:52;17.97;;;12.67;;
16522;SDS011;19889;52.546;13.348;2023-04-08T12:44:19;16.13;;;11.60;;
16522;SDS011;19889;52.546;13.348;2023-04-08T12:46:46;18.83;;;13.20;;
16522;SDS011;19889;52.546;13.348;2023-04-08T12:49:13;13.40;;;10.43;;
16522;SDS011;19889;52.546;13.348;2023-04-08T12:51:41;16.60;;;10.83;;
16522;SDS011;19889;52.546;13.348;2023-04-08T12:54:08;19.03;;;11.87;;
16522;SDS011;19889;52.546;13.348;2023-04-08T12:56:35;19.73;;;12.80;;
16522;SDS011;19889;52.546;13.348;2023-04-08T12:59:03;18.07;;;13.07;;
16522;SDS011;19889;52.546;13.348;2023-04-08T13:01:30;17.53;;;12.23;;
16522;SDS011;19889;52.546;13.348;2023-04-08T13:03:57;23.53;;;12.20;;
16522;SDS011;19889;52.546;13.348;2023-04-08T13:06:24;17.03;;;11.87;;
16522;SDS011;19889;52.546;13.348;2023-04-08T13:08:53;16.50;;;12.43;;
16522;SDS011;19889;52.546;13.348;2023-04-08T13:11:20;17.83;;;12.87;;
16522;SDS011;19889;52.546;13.348;2023-04-08T13:13:47;17.77;;;13.10;;
16522;SDS011;19889;52.546;13.348;2023-04-08T13:16:14;18.47;;;12.50;;
16522;SDS011;19889;52.546;13.348;2023-04-08T13:18:41;20.20;;;12.20;;
16522;SDS011;19889;52.546;13.348;2023-04-08T13:21:08;18.10;;;12.43;;
16522;SDS011;19889;52.546;13.348;2023-04-08T13:23:35;15.87;;;12.00;;
16522;SDS011;19889;52.546;13.348;2023-04-08T13:26:04;16.93;;;11.67;;
16522;SDS011;19889;52.546;13.348;2023-04-08T13:28:31;15.30;;;11.43;;
16522;SDS011;19889;52.546;13.348;2023-04-08T13:30:58;15.83;;;11.57;;
16522;SDS011;19889;52.546;13.348;2023-04-08T13:33:25;14.80;;;10.67;;
16522;SDS011;19889;52.546;13.348;2023-04-08T13:35:52;15.60;;;11.00;;
16522;SDS011;19889;52.546;13.348;2023-04-08T13:38:19;17.10;;;11.63;;
16522;SDS011;19889;52.546;13.348;2023-04-08T13:40:46;14.97;;;11.00;;
16522;SDS011;19889;52.546;13.348;2023-04-08T13:43:15;15.03;;;10.80;;
16522;SDS011;19889;52.546;13.348;2023-04-08T13:45:42;16.53;;;10.67;;
16522;SDS011;19889;52.546;13.348;2023-04-08T13:48:09;11.80;;;9.93;;
16522;SDS011;19889;52.546;13.348;2023-04-08T13:50:37;11.50;;;8.80;;
16522;SDS011;19889;52.546;13.348;2023-04-08T13:53:05;11.93;;;9.30;;
16522;SDS011;19889;52.546;13.348;2023-04-08T13:55:32;11.57;;;9.17;;
16522;SDS011;19889;52.546;13.348;2023-04-08T13:57:59;12.77;;;9.67;;
16522;SDS011;19889;52.546;13.348;2023-04-08T14:00:28;11.07;;;8.70;;
16522;SDS011;19889;52.546;13.348;2023-04-08T14:02:55;12.87;;;9.03;;
16522;SDS011;19889;52.546;13.348;2023-04-08T14:05:22;16.13;;;11.60;;
16522;SDS011;19889;52.546;13.348;2023-04-08T14:07:49;13.03;;;9.67;;
16522;SDS011;19889;52.546;13.348;2023-04-08T14:10:16;13.33;;;10.70;;
16522;SDS011;19889;52.546;13.348;2023-04-08T14:12:43;15.70;;;10.60;;
16522;SDS011;19889;52.546;13.348;2023-04-08T14:15:10;12.20;;;9.63;;
16522;SDS011;19889;52.546;13.348;2023-04-08T14:17:39;11.73;;;9.90;;